createdAt,value
2022-12-15T00:00:04.464Z,12.60
2022-12-15T00:03:13.337Z,13.38
2022-12-15T00:06:19.723Z,14.30
2022-12-15T00:09:30.661Z,13.50
2022-12-15T00:12:39.041Z,13.27
2022-12-15T00:15:44.644Z,13.63
2022-12-15T00:18:49.928Z,14.32
2022-12-15T00:21:55.781Z,13.60
2022-12-15T00:25:01.194Z,13.57
2022-12-15T00:28:06.533Z,14.05
2022-12-15T00:31:12.275Z,12.98
2022-12-15T00:34:17.879Z,14.00
2022-12-15T00:37:25.835Z,13.52
2022-12-15T00:40:16.050Z,13.32
2022-12-15T00:43:03.324Z,12.88
2022-12-15T00:46:08.925Z,13.73
2022-12-15T00:48:56.385Z,13.90
2022-12-15T00:52:06.533Z,15.40
2022-12-15T00:55:12.130Z,13.95
2022-12-15T00:58:17.956Z,13.73
2022-12-15T01:01:29.580Z,13.93
2022-12-15T01:04:37.457Z,13.35
2022-12-15T01:07:43.088Z,13.63
2022-12-15T01:10:48.644Z,12.95
2022-12-15T01:13:54.091Z,13.10
2022-12-15T01:16:59.316Z,13.50
2022-12-15T01:20:04.730Z,13.00
2022-12-15T01:22:54.395Z,13.65
2022-12-15T01:25:41.194Z,13.40
2022-12-15T01:28:28.748Z,12.95
2022-12-15T01:31:15.939Z,12.43
2022-12-15T01:34:02.851Z,13.52
2022-12-15T01:36:49.741Z,12.13
2022-12-15T01:39:55.288Z,13.07
2022-12-15T01:42:42.293Z,12.82
2022-12-15T01:45:29.042Z,12.48
2022-12-15T01:48:27.543Z,13.35
2022-12-15T01:51:19.951Z,13.32
2022-12-15T01:54:10.429Z,11.77
2022-12-15T01:57:05.264Z,13.18
2022-12-15T01:59:56.717Z,13.27
2022-12-15T02:02:43.690Z,13.07
2022-12-15T02:05:33.949Z,12.95
2022-12-15T02:08:20.973Z,12.60
2022-12-15T02:11:45.638Z,12.63
2022-12-15T02:14:53.439Z,12.70
2022-12-15T02:17:58.751Z,12.73
2022-12-15T02:21:20.847Z,13.45
2022-12-15T02:24:38.101Z,13.05
2022-12-15T02:27:47.783Z,12.45
2022-12-15T02:31:08.862Z,13.77
2022-12-15T02:34:06.327Z,13.10
2022-12-15T02:37:00.851Z,12.88
2022-12-15T02:39:47.732Z,12.73
2022-12-15T02:42:39.192Z,12.50
2022-12-15T02:45:37.654Z,13.15
2022-12-15T02:48:38.137Z,12.68
2022-12-15T02:52:15.638Z,11.70
2022-12-15T02:55:23.005Z,12.43
2022-12-15T02:58:27.636Z,12.35
2022-12-15T03:01:34.564Z,12.27
2022-12-15T03:04:22.040Z,11.68
2022-12-15T03:07:10.109Z,12.85
2022-12-15T03:10:00.573Z,12.80
2022-12-15T03:12:47.729Z,12.68
2022-12-15T03:15:35.705Z,11.88
2022-12-15T03:18:23.012Z,11.48
2022-12-15T03:21:09.898Z,11.75
2022-12-15T03:23:56.834Z,12.35
2022-12-15T03:26:43.842Z,12.77
2022-12-15T03:29:30.995Z,13.63
2022-12-15T03:32:17.967Z,13.35
2022-12-15T03:35:05.638Z,11.95
2022-12-15T03:37:55.665Z,11.80
2022-12-15T03:40:42.876Z,12.40
2022-12-15T03:43:30.251Z,13.48
2022-12-15T03:46:17.613Z,12.35
2022-12-15T03:49:04.668Z,12.20
2022-12-15T03:51:54.302Z,12.13
2022-12-15T03:54:43.246Z,12.13
2022-12-15T03:57:30.527Z,12.70
2022-12-15T04:00:18.711Z,12.18
2022-12-15T04:03:05.685Z,12.32
2022-12-15T04:05:52.613Z,11.30
2022-12-15T04:08:39.660Z,12.73
2022-12-15T04:11:26.616Z,11.98
2022-12-15T04:14:15.872Z,12.32
2022-12-15T04:17:02.772Z,13.20
2022-12-15T04:20:08.219Z,12.77
2022-12-15T04:22:56.521Z,11.80
2022-12-15T04:26:01.890Z,11.73
2022-12-15T04:29:07.042Z,11.20
2022-12-15T04:32:12.495Z,12.18
2022-12-15T04:35:17.681Z,11.57
2022-12-15T04:38:23.282Z,11.40
2022-12-15T04:41:28.878Z,11.48
2022-12-15T04:44:34.767Z,11.95
2022-12-15T04:47:42.245Z,12.40
2022-12-15T04:50:47.753Z,11.65
2022-12-15T04:53:55.390Z,11.57
2022-12-15T04:57:00.845Z,11.88
2022-12-15T05:00:06.446Z,11.07
2022-12-15T05:03:17.977Z,11.35
2022-12-15T05:06:24.007Z,11.88
2022-12-15T05:09:29.619Z,11.75
2022-12-15T05:12:35.150Z,11.95
2022-12-15T05:15:40.558Z,11.98
2022-12-15T05:18:45.844Z,12.18
2022-12-15T05:21:51.443Z,11.77
2022-12-15T05:24:57.039Z,11.75
2022-12-15T05:28:02.712Z,11.73
2022-12-15T05:31:07.995Z,11.40
2022-12-15T05:34:08.293Z,12.05
2022-12-15T05:36:56.195Z,11.00
2022-12-15T05:39:42.959Z,11.82
2022-12-15T05:42:29.880Z,10.95
2022-12-15T05:45:16.853Z,11.88
2022-12-15T05:48:03.754Z,10.98
2022-12-15T05:50:50.607Z,11.80
2022-12-15T05:53:43.636Z,11.98
2022-12-15T05:56:30.559Z,11.55
2022-12-15T05:59:19.303Z,11.70
2022-12-15T06:02:06.267Z,11.57
2022-12-15T06:04:58.556Z,11.35
2022-12-15T06:07:47.974Z,12.90
2022-12-15T06:13:34.284Z,11.95
2022-12-15T06:16:27.654Z,10.95
2022-12-15T06:19:57.916Z,10.85
2022-12-15T06:22:49.752Z,15.00
2022-12-15T06:25:37.368Z,16.73
2022-12-15T06:28:25.024Z,22.13
2022-12-15T06:31:12.742Z,18.80
2022-12-15T06:34:02.310Z,18.10
2022-12-15T06:36:50.203Z,16.67
2022-12-15T06:39:36.980Z,16.90
2022-12-15T06:42:23.780Z,16.45
2022-12-15T06:45:10.825Z,17.40
2022-12-15T06:48:01.255Z,15.95
2022-12-15T06:50:50.231Z,15.82
2022-12-15T06:53:41.163Z,16.20
2022-12-15T06:56:33.968Z,16.20
2022-12-15T06:59:24.828Z,16.38
2022-12-15T07:02:21.110Z,17.02
2022-12-15T07:05:10.754Z,17.25
2022-12-15T07:08:02.367Z,16.45
2022-12-15T07:10:51.421Z,16.77
2022-12-15T07:13:41.131Z,16.27
2022-12-15T07:16:27.996Z,15.57
2022-12-15T07:19:15.281Z,16.08
2022-12-15T07:22:02.436Z,16.42
2022-12-15T07:24:49.311Z,15.73
2022-12-15T07:27:37.868Z,16.20
2022-12-15T07:30:24.633Z,15.95
2022-12-15T07:33:11.497Z,14.48
2022-12-15T07:35:58.275Z,15.18
2022-12-15T07:38:50.120Z,16.20
2022-12-15T07:41:38.683Z,15.57
2022-12-15T07:44:27.716Z,15.00
2022-12-15T07:47:14.602Z,15.13
2022-12-15T07:50:01.755Z,15.65
2022-12-15T07:52:50.955Z,15.00
2022-12-15T07:56:05.648Z,15.15
2022-12-15T07:58:48.176Z,14.68
2022-12-15T08:01:35.331Z,16.23
2022-12-15T08:04:22.657Z,14.55
2022-12-15T08:07:10.717Z,14.80
2022-12-15T08:09:57.775Z,15.98
2022-12-15T08:12:44.751Z,14.27
2022-12-15T08:15:31.599Z,16.38
2022-12-15T08:18:18.772Z,14.38
2022-12-15T08:21:17.118Z,15.10
2022-12-15T08:24:04.587Z,14.10
2022-12-15T08:27:15.891Z,15.57
2022-12-15T08:30:06.832Z,15.55
2022-12-15T08:33:11.934Z,14.88
2022-12-15T08:36:00.448Z,14.65
2022-12-15T08:38:47.690Z,15.45
2022-12-15T08:41:34.568Z,15.43
2022-12-15T08:44:31.779Z,14.75
2022-12-15T08:47:18.659Z,15.57
2022-12-15T08:50:09.039Z,16.10
2022-12-15T08:53:29.023Z,14.20
2022-12-15T08:56:05.746Z,15.25
2022-12-15T08:58:57.946Z,14.15
2022-12-15T09:01:45.206Z,14.85
2022-12-15T09:04:32.386Z,14.35
2022-12-15T09:07:23.673Z,15.38
2022-12-15T09:10:10.610Z,15.57
2022-12-15T09:12:57.670Z,15.05
2022-12-15T09:16:08.768Z,14.68
2022-12-15T09:18:54.797Z,15.27
2022-12-15T09:21:44.915Z,15.05
2022-12-15T09:24:35.704Z,16.85
2022-12-15T09:27:22.715Z,15.38
2022-12-15T09:30:09.956Z,15.20
2022-12-15T09:32:57.132Z,14.52
2022-12-15T09:35:51.352Z,14.52
2022-12-15T09:38:39.064Z,14.80
2022-12-15T09:41:36.153Z,14.63
2022-12-15T09:44:27.158Z,15.25
2022-12-15T09:47:42.198Z,15.57
2022-12-15T09:50:39.356Z,15.10
2022-12-15T09:53:53.721Z,15.27
2022-12-15T09:56:44.193Z,15.65
2022-12-15T10:00:07.923Z,15.40
2022-12-15T10:03:20.199Z,15.20
2022-12-15T10:09:30.514Z,14.65
2022-12-15T10:12:30.056Z,14.70
2022-12-15T10:15:18.949Z,14.57
2022-12-15T10:18:15.276Z,15.23
2022-12-15T10:21:03.296Z,15.45
2022-12-15T10:23:59.438Z,16.95
2022-12-15T10:27:08.490Z,15.05
2022-12-15T10:30:04.522Z,16.02
2022-12-15T10:33:22.323Z,15.25
2022-12-15T10:55:31.280Z,14.70
2022-12-15T11:03:17.502Z,14.65
2022-12-15T11:07:54.268Z,14.93
2022-12-15T11:18:28.567Z,15.82
2022-12-15T11:22:46.235Z,16.70
2022-12-15T11:25:48.354Z,16.48
2022-12-15T11:31:20.737Z,15.07
2022-12-15T11:33:29.833Z,16.40
2022-12-15T11:37:20.676Z,17.10
2022-12-15T11:44:46.915Z,17.40
2022-12-15T11:48:49.001Z,16.27
2022-12-15T11:56:37.658Z,15.30
2022-12-15T12:04:11.468Z,16.38
2022-12-15T12:11:15.908Z,15.73
2022-12-15T12:18:33.109Z,19.23
2022-12-15T12:21:24.822Z,19.40
2022-12-15T12:24:22.685Z,21.98
2022-12-15T12:27:20.087Z,20.02
2022-12-15T12:30:14.187Z,18.90
2022-12-15T12:33:29.437Z,21.15
2022-12-15T12:36:29.574Z,18.55
2022-12-15T12:39:21.555Z,18.83
2022-12-15T12:42:24.789Z,18.60
2022-12-15T12:45:12.822Z,18.77
2022-12-15T12:48:15.466Z,19.75
2022-12-15T12:51:24.552Z,19.23
2022-12-15T12:54:42.316Z,19.77
2022-12-15T12:57:40.568Z,18.05
2022-12-15T13:00:29.219Z,17.73
2022-12-15T13:03:19.770Z,17.02
2022-12-15T13:06:41.824Z,17.55
2022-12-15T13:09:47.783Z,17.13
2022-12-15T13:12:54.871Z,18.85
2022-12-15T13:15:51.873Z,17.98
2022-12-15T13:19:04.823Z,18.95
2022-12-15T13:22:01.854Z,18.40
2022-12-15T13:24:53.481Z,17.15
2022-12-15T13:27:41.861Z,18.52
2022-12-15T13:30:38.048Z,19.07
2022-12-15T13:33:27.521Z,19.02
2022-12-15T13:36:39.943Z,18.40
2022-12-15T13:39:36.051Z,18.80
2022-12-15T13:42:53.131Z,19.10
2022-12-15T13:45:51.203Z,19.15
2022-12-15T13:49:04.715Z,17.73
2022-12-15T13:51:59.202Z,18.38
2022-12-15T13:54:59.028Z,18.27
2022-12-15T13:57:59.460Z,17.63
2022-12-15T14:00:54.336Z,18.27
2022-12-15T14:04:06.159Z,17.73
2022-12-15T14:07:06.932Z,18.95
2022-12-15T14:09:54.057Z,17.38
2022-12-15T14:12:44.281Z,16.92
2022-12-15T14:15:32.682Z,17.10
2022-12-15T14:18:26.435Z,17.85
2022-12-15T14:21:21.937Z,16.95
2022-12-15T14:24:40.249Z,18.00
2022-12-15T14:27:30.931Z,17.88
2022-12-15T14:30:33.325Z,18.15
2022-12-15T14:33:22.100Z,17.90
2022-12-15T14:36:14.612Z,16.63
2022-12-15T14:39:06.792Z,17.13
2022-12-15T14:41:54.133Z,17.25
2022-12-15T14:44:49.712Z,17.83
2022-12-15T14:47:37.690Z,16.83
2022-12-15T14:50:25.430Z,17.55
2022-12-15T14:53:17.836Z,17.77
2022-12-15T14:56:20.386Z,17.85
2022-12-15T14:59:19.870Z,17.08
2022-12-15T15:02:22.811Z,16.23
2022-12-15T15:03:10.516Z,15.50
2022-12-15T15:05:26.181Z,15.35
2022-12-15T15:08:28.451Z,17.27
2022-12-15T15:11:37.013Z,17.60
2022-12-15T15:14:27.691Z,16.52
2022-12-15T15:17:17.128Z,16.45
2022-12-15T15:20:07.015Z,17.08
2022-12-15T15:23:12.044Z,18.17
2022-12-15T15:26:05.210Z,18.25
2022-12-15T15:28:52.204Z,17.90
2022-12-15T15:31:41.859Z,17.02
2022-12-15T15:34:29.044Z,17.70
2022-12-15T15:37:24.192Z,16.60
2022-12-15T15:40:14.465Z,15.32
2022-12-15T15:43:01.360Z,17.88
2022-12-15T15:45:49.388Z,16.42
2022-12-15T15:49:39.444Z,17.65
2022-12-15T15:56:19.932Z,30.48
2022-12-15T16:02:57.333Z,30.17
2022-12-15T16:06:20.826Z,28.88
2022-12-15T16:09:24.222Z,26.23
2022-12-15T16:12:46.149Z,26.95
2022-12-15T16:16:20.099Z,26.42
2022-12-15T16:19:13.310Z,25.00
2022-12-15T16:22:30.035Z,24.27
2022-12-15T16:25:50.321Z,23.65
2022-12-15T16:28:43.872Z,25.33
2022-12-15T16:32:05.425Z,25.48
2022-12-15T16:34:55.052Z,27.63
2022-12-15T16:37:46.572Z,29.02
2022-12-15T16:40:37.480Z,28.52
2022-12-15T16:43:32.890Z,27.80
2022-12-15T16:46:23.156Z,28.40
2022-12-15T16:49:11.229Z,28.17
2022-12-15T16:52:00.843Z,27.50
2022-12-15T16:54:49.081Z,24.80
2022-12-15T16:57:35.839Z,25.48
2022-12-15T17:00:26.061Z,24.30
2022-12-15T17:03:14.562Z,23.58
2022-12-15T17:06:06.710Z,25.65
2022-12-15T17:08:55.105Z,24.52
2022-12-15T17:11:42.333Z,24.00
2022-12-15T17:14:29.106Z,24.45
2022-12-15T17:17:17.535Z,25.90
2022-12-15T17:20:28.483Z,22.80
2022-12-15T17:23:17.510Z,22.67
2022-12-15T17:26:28.138Z,20.88
2022-12-15T17:29:16.541Z,20.80
2022-12-15T17:32:03.621Z,23.42
2022-12-15T17:34:50.691Z,21.17
2022-12-15T17:37:38.044Z,22.38
2022-12-15T17:40:25.264Z,21.13
2022-12-15T17:43:36.812Z,21.52
2022-12-15T17:46:27.969Z,20.30
2022-12-15T17:49:19.842Z,19.83
2022-12-15T17:52:28.481Z,18.70
2022-12-15T17:55:35.006Z,20.08
2022-12-15T17:58:27.979Z,19.05
2022-12-15T18:01:40.643Z,19.02
2022-12-15T18:04:36.251Z,19.00
2022-12-15T18:07:23.913Z,18.08
2022-12-15T18:10:42.786Z,20.23
2022-12-15T18:13:35.536Z,19.38
2022-12-15T18:16:24.676Z,19.30
2022-12-15T18:19:12.000Z,17.35
2022-12-15T18:21:59.203Z,17.60
2022-12-15T18:24:48.921Z,17.88
2022-12-15T18:27:35.832Z,19.92
2022-12-15T18:30:26.658Z,18.38
2022-12-15T18:33:14.029Z,18.55
2022-12-15T18:36:11.330Z,18.00
2022-12-15T18:39:23.639Z,19.25
2022-12-15T18:42:17.839Z,18.00
2022-12-15T18:45:13.376Z,18.52
2022-12-15T18:48:04.212Z,17.00
2022-12-15T18:50:55.977Z,19.83
2022-12-15T18:53:42.868Z,16.98
2022-12-15T18:56:37.341Z,17.95
2022-12-15T18:59:27.201Z,18.15
2022-12-15T19:02:20.711Z,17.05
2022-12-15T19:05:28.560Z,16.95
2022-12-15T19:08:36.320Z,16.05
2022-12-15T19:11:41.430Z,16.48
2022-12-15T19:14:40.550Z,16.88
2022-12-15T19:17:49.084Z,16.52
2022-12-15T19:20:54.671Z,14.95
2022-12-15T19:23:41.560Z,15.98
2022-12-15T19:26:36.993Z,15.30
2022-12-15T19:29:23.845Z,15.13
2022-12-15T19:32:35.074Z,14.93
2022-12-15T19:35:22.254Z,15.93
2022-12-15T19:38:24.545Z,15.50
2022-12-15T19:41:26.473Z,14.30
2022-12-15T19:44:20.102Z,13.80
2022-12-15T19:47:20.811Z,16.10
2022-12-15T19:50:15.988Z,14.35
2022-12-15T19:53:06.843Z,14.02
2022-12-15T19:56:03.603Z,14.13
2022-12-15T19:58:53.163Z,13.90
2022-12-15T20:01:43.801Z,13.88
2022-12-15T20:04:32.285Z,13.60
2022-12-15T20:07:32.212Z,13.07
2022-12-15T20:10:29.805Z,13.18
2022-12-15T20:13:25.975Z,12.25
2022-12-15T20:16:19.227Z,13.10
2022-12-15T20:19:06.380Z,13.07
2022-12-15T20:21:55.891Z,12.38
2022-12-15T20:24:44.209Z,12.77
2022-12-15T20:27:31.303Z,12.98
2022-12-15T20:30:35.340Z,12.10
2022-12-15T20:33:22.585Z,12.60
2022-12-15T20:36:13.782Z,11.77
2022-12-15T20:39:06.459Z,11.40
2022-12-15T20:45:41.695Z,12.38
2022-12-15T20:56:40.633Z,14.13
2022-12-15T20:59:45.305Z,12.40
2022-12-15T21:03:04.796Z,11.60
2022-12-15T21:06:26.550Z,11.88
2022-12-15T21:13:12.475Z,11.75
2022-12-15T21:16:18.224Z,10.75
2022-12-15T21:19:34.537Z,11.48
2022-12-15T21:23:29.445Z,11.70
2022-12-15T21:29:52.647Z,11.10
2022-12-15T21:32:52.003Z,11.07
2022-12-15T21:36:14.701Z,11.68
2022-12-15T21:42:38.607Z,11.38
2022-12-15T21:45:47.707Z,12.23
2022-12-15T21:56:11.691Z,11.50
2022-12-15T22:03:02.602Z,12.00
2022-12-15T22:06:13.102Z,10.90
2022-12-15T22:09:22.523Z,11.38
2022-12-15T22:16:32.680Z,11.00
2022-12-15T22:19:46.846Z,11.43
2022-12-15T22:23:20.168Z,11.55
2022-12-15T22:27:22.496Z,11.43
2022-12-15T22:33:47.600Z,11.90
2022-12-15T22:36:48.602Z,12.30
2022-12-15T22:39:47.845Z,11.23
2022-12-15T22:42:47.565Z,13.23
2022-12-15T22:46:10.974Z,12.38
2022-12-15T22:49:26.170Z,11.93
2022-12-15T22:52:47.804Z,12.43
2022-12-15T22:56:04.586Z,12.73
2022-12-15T22:59:32.071Z,13.43
2022-12-15T23:02:44.062Z,13.63
2022-12-15T23:05:52.999Z,13.32
2022-12-15T23:11:55.362Z,13.18
2022-12-15T23:18:20.624Z,14.20
2022-12-15T23:21:30.893Z,13.98
2022-12-15T23:24:31.725Z,14.30
2022-12-15T23:27:26.502Z,13.38
2022-12-15T23:30:44.447Z,13.82
2022-12-15T23:33:46.087Z,13.05
2022-12-15T23:40:39.173Z,13.95
2022-12-15T23:43:42.318Z,13.93
2022-12-15T23:46:36.797Z,13.95
2022-12-15T23:49:46.860Z,13.95
2022-12-15T23:52:43.698Z,14.85
2022-12-15T23:55:43.384Z,15.02
2022-12-15T23:58:57.571Z,13.30
